Airfield :
LOGIN :

Register | Disclaimer

   EN    FR    IT 

 










Legend :    VFR   Marginal VFR   IFR   Intensive IFR   Very Intensive IFR
Visi :
Ceiling :
>= 8 km
>= 3000ft
5 to 8 km
1000 to 3000 ft
1500m to 5 km
500 to 1000 ft
800 to 1500m
200 to 500 ft
< 800m
< 200 ft
Symbols :   Thunderstorms  Fog  Heavy snow  Heavy precipitations  Wind > 20 kt
SIGMETs :     Misc.  Thunderstorms  Icing  Turbulence  Mountain Waves  Volcanic Ashes






- Airport Elevation : 36 ft
- IATA code : LTQ


LFAT - Le Touquet

CURRENT METAR :
  • 170700Z AUTO 14005KT 5000 BR NSC 02/02 Q1010 TEMPO 2000 BR

EXPIRED METARs :
  • 170630Z AUTO 15002KT 6000 NSC 02/02 Q1010 TEMPO 2000 BR
  • 170600Z AUTO 14003KT 6000 NSC 02/01 Q1010 TEMPO 2000 BR
  • 170530Z AUTO 14003KT 7000 NSC 02/01 Q1010
  • 170500Z AUTO 14003KT 7000 NSC 03/03 Q1009
  • 170430Z AUTO 14004KT 6000 NSC 03/03 Q1009

TAF TAF LFAT
Valid from the 17 at 06:00 until the 17 at 15:00 UTC


170500Z 1706/1715 12005KT 8000 NSC
TEMPO 1706/1709 2000 BR
ATIS : +33 3 21 06 62 84



MET'MAP, your aeronautical weather chart ! - Copyright ORBIFLY December 2007 - Disclaimer

ORBIFLY MET'MAP TEAM :

Programming & Development : Alexandra Zaïnal
Concept & Development : Baudouin d'Aumeries
Co-Development & Prog : Marc-Olivier Méhu
Technical & hardware support : Manuel Goepfert

Contact : metmap@orbifly.com




SOURCES & CREDITS :

   NOAA